Time;durP1;ratioP1;P1;durP2;ratioP2;P2;SDS_P1;SDS_P2;PMS_P1;PMS_P2;Temp;Humidity;BMP_temperature;BMP_pressure;BME280_temperature;BME280_humidity;BME280_pressure;Samples;Min_cycle;Max_cycle;Signal;HPM_P1;HPM_P2
2022/07/05 00:01:58;;;;;;;2.03;1.30;;;;;;;;;;5033413;28;20084;-55
2022/07/05 00:04:24;;;;;;;1.77;1.23;;;;;;;;;;5030693;28;20017;-53
2022/07/05 00:09:35;;;;;;;3.80;1.30;;;;;;;;;;5032142;28;20503;-55
2022/07/05 00:12:01;;;;;;;1.73;1.40;;;;;;;;;;5032241;28;20021;-55
2022/07/05 00:14:27;;;;;;;1.85;1.48;;;;;;;;;;5030696;28;20021;-55
2022/07/05 00:16:53;;;;;;;2.45;1.30;;;;;;;;;;5033149;28;20179;-56
2022/07/05 00:19:19;;;;;;;1.95;1.48;;;;;;;;;;5032002;28;20132;-55
2022/07/05 00:21:45;;;;;;;2.92;1.75;;;;;;;;;;5031192;28;20033;-55
2022/07/05 00:24:11;;;;;;;3.20;1.48;;;;;;;;;;5031593;28;20374;-56
2022/07/05 00:26:37;;;;;;;1.40;1.30;;;;;;;;;;5031934;28;20053;-55
2022/07/05 00:29:03;;;;;;;1.77;1.40;;;;;;;;;;5028046;28;20083;-55
2022/07/05 00:31:29;;;;;;;3.33;1.65;;;;;;;;;;5023179;28;20067;-54
2022/07/05 00:33:55;;;;;;;1.88;1.48;;;;;;;;;;5031875;28;20033;-55
2022/07/05 00:36:21;;;;;;;2.08;1.70;;;;;;;;;;5030648;28;20397;-55
2022/07/05 00:38:47;;;;;;;4.40;1.70;;;;;;;;;;5030332;28;20451;-53
2022/07/05 00:41:13;;;;;;;1.98;1.52;;;;;;;;;;5032047;28;20030;-54
2022/07/05 00:43:51;;;;;;;2.67;1.83;;;;;;;;;;5032151;28;20025;-54
2022/07/05 00:46:17;;;;;;;2.67;1.63;;;;;;;;;;5032329;28;20026;-55
2022/07/05 00:48:43;;;;;;;2.45;1.80;;;;;;;;;;5032292;28;20056;-55
2022/07/05 00:51:10;;;;;;;3.30;1.60;;;;;;;;;;5031409;28;20044;-55
2022/07/05 00:53:36;;;;;;;2.63;1.33;;;;;;;;;;5031518;28;20034;-54
2022/07/05 00:56:02;;;;;;;2.65;1.80;;;;;;;;;;5030148;28;20086;-55
2022/07/05 00:58:29;;;;;;;4.40;1.73;;;;;;;;;;5028777;28;20029;-55
2022/07/05 01:00:55;;;;;;;2.90;1.60;;;;;;;;;;5031429;28;20037;-56
2022/07/05 01:03:21;;;;;;;4.50;1.55;;;;;;;;;;5032136;28;20396;-56
2022/07/05 01:05:47;;;;;;;5.05;1.60;;;;;;;;;;5030938;28;20017;-55
2022/07/05 01:08:13;;;;;;;4.72;1.67;;;;;;;;;;5029199;28;20034;-56
2022/07/05 01:10:41;;;;;;;2.63;1.48;;;;;;;;;;5031332;28;20044;-58
2022/07/05 01:13:08;;;;;;;3.88;1.58;;;;;;;;;;5029271;28;20436;-55
2022/07/05 01:15:34;;;;;;;5.47;1.60;;;;;;;;;;5031102;28;20083;-56
2022/07/05 01:18:00;;;;;;;2.13;1.50;;;;;;;;;;5031131;28;20037;-56
2022/07/05 01:20:27;;;;;;;5.25;1.73;;;;;;;;;;5030094;28;20083;-55
2022/07/05 01:22:53;;;;;;;2.90;1.63;;;;;;;;;;5028552;28;20385;-55
2022/07/05 01:25:20;;;;;;;1.65;1.40;;;;;;;;;;5022320;28;20087;-55
2022/07/05 01:27:47;;;;;;;1.92;1.50;;;;;;;;;;5025008;28;20577;-55
2022/07/05 01:30:13;;;;;;;2.25;1.52;;;;;;;;;;5021212;28;20528;-55
2022/07/05 01:32:39;;;;;;;2.10;1.45;;;;;;;;;;5031383;28;20112;-55
2022/07/05 01:35:07;;;;;;;1.63;1.20;;;;;;;;;;5031923;28;20546;-56
2022/07/05 01:37:33;;;;;;;1.88;1.40;;;;;;;;;;5030838;28;20037;-57
2022/07/05 01:40:02;;;;;;;2.13;1.38;;;;;;;;;;5029475;28;20481;-56
2022/07/05 01:42:28;;;;;;;2.90;1.70;;;;;;;;;;5028520;28;20037;-55
2022/07/05 01:44:54;;;;;;;2.17;1.35;;;;;;;;;;5028860;28;20724;-54
2022/07/05 01:47:20;;;;;;;2.55;1.30;;;;;;;;;;5029482;28;20108;-55
2022/07/05 01:49:47;;;;;;;1.35;1.15;;;;;;;;;;5017721;28;20467;-55
2022/07/05 01:52:13;;;;;;;4.32;1.30;;;;;;;;;;5027431;28;20040;-54
2022/07/05 01:54:40;;;;;;;2.40;1.20;;;;;;;;;;5029202;28;20132;-56
2022/07/05 01:57:07;;;;;;;3.15;1.30;;;;;;;;;;5029304;28;20025;-54
2022/07/05 01:59:36;;;;;;;1.77;1.35;;;;;;;;;;5028951;28;20061;-53
2022/07/05 02:02:03;;;;;;;2.25;1.30;;;;;;;;;;5021764;28;20108;-54
2022/07/05 02:04:29;;;;;;;2.63;1.33;;;;;;;;;;5027952;28;20029;-53
2022/07/05 02:06:56;;;;;;;1.35;1.25;;;;;;;;;;5029946;28;20104;-55
2022/07/05 02:09:22;;;;;;;1.40;1.20;;;;;;;;;;5028002;28;20022;-55
2022/07/05 02:11:48;;;;;;;3.33;1.50;;;;;;;;;;5028010;28;20084;-55
2022/07/05 02:14:14;;;;;;;4.05;1.50;;;;;;;;;;5027000;28;20026;-52
2022/07/05 02:16:40;;;;;;;2.00;1.17;;;;;;;;;;5030805;28;20022;-56
2022/07/05 02:19:06;;;;;;;2.00;1.20;;;;;;;;;;5029633;28;20037;-55
2022/07/05 02:21:32;;;;;;;1.50;1.30;;;;;;;;;;5028119;28;20560;-56
2022/07/05 02:23:58;;;;;;;4.57;1.60;;;;;;;;;;5029608;28;20377;-57
2022/07/05 02:26:24;;;;;;;2.00;1.30;;;;;;;;;;5028150;28;20050;-54
2022/07/05 02:28:50;;;;;;;2.92;1.35;;;;;;;;;;5032309;28;20029;-55
2022/07/05 02:31:16;;;;;;;2.55;1.30;;;;;;;;;;5029372;28;20467;-55
2022/07/05 02:33:42;;;;;;;4.85;1.33;;;;;;;;;;5027537;28;20029;-55
2022/07/05 02:36:13;;;;;;;3.55;1.42;;;;;;;;;;5027601;28;20832;-56
2022/07/05 02:38:39;;;;;;;2.65;1.20;;;;;;;;;;5029205;28;20563;-58
2022/07/05 02:41:06;;;;;;;2.28;1.20;;;;;;;;;;5030832;28;20041;-55
2022/07/05 02:43:33;;;;;;;1.80;1.13;;;;;;;;;;5024230;28;20022;-56
2022/07/05 02:45:59;;;;;;;4.18;1.52;;;;;;;;;;5030161;28;20036;-56
2022/07/05 02:48:25;;;;;;;2.38;1.50;;;;;;;;;;5027634;28;20021;-56
2022/07/05 02:50:51;;;;;;;2.35;1.40;;;;;;;;;;5030120;28;20033;-55
2022/07/05 02:53:17;;;;;;;3.25;1.55;;;;;;;;;;5028575;28;20084;-56
2022/07/05 02:55:43;;;;;;;2.40;1.50;;;;;;;;;;5028519;28;20030;-55
2022/07/05 02:58:09;;;;;;;1.83;1.40;;;;;;;;;;5029103;28;20088;-56
2022/07/05 03:00:35;;;;;;;2.20;1.20;;;;;;;;;;5028468;28;20037;-56
2022/07/05 03:03:01;;;;;;;2.05;1.20;;;;;;;;;;5029805;28;20113;-54
2022/07/05 03:05:27;;;;;;;2.28;1.60;;;;;;;;;;5029431;28;20109;-54
2022/07/05 03:07:53;;;;;;;1.98;1.20;;;;;;;;;;5028179;28;20116;-56
2022/07/05 03:10:19;;;;;;;2.75;1.48;;;;;;;;;;5027279;28;20029;-55
2022/07/05 03:12:45;;;;;;;1.52;1.23;;;;;;;;;;5031476;28;20033;-57
2022/07/05 03:15:11;;;;;;;4.25;1.60;;;;;;;;;;5027032;28;21876;-55
2022/07/05 03:17:37;;;;;;;2.25;1.13;;;;;;;;;;5028076;28;20033;-56
2022/07/05 03:20:03;;;;;;;1.25;1.15;;;;;;;;;;5028451;28;20064;-56
2022/07/05 03:22:29;;;;;;;2.78;1.50;;;;;;;;;;5030182;28;20468;-52
2022/07/05 03:24:55;;;;;;;2.03;1.40;;;;;;;;;;5028663;28;20035;-56
2022/07/05 03:27:21;;;;;;;5.03;1.55;;;;;;;;;;5026354;28;20424;-55
2022/07/05 03:29:47;;;;;;;2.20;1.35;;;;;;;;;;5025210;28;20374;-55
2022/07/05 03:32:13;;;;;;;3.53;1.60;;;;;;;;;;5029658;28;20034;-53
2022/07/05 03:34:39;;;;;;;1.58;1.20;;;;;;;;;;5028076;28;20029;-56
2022/07/05 03:37:05;;;;;;;3.08;1.33;;;;;;;;;;5030868;28;20523;-56
2022/07/05 03:39:31;;;;;;;5.25;1.40;;;;;;;;;;5029815;28;20025;-55
2022/07/05 03:41:57;;;;;;;3.17;1.27;;;;;;;;;;5027483;28;20040;-55
2022/07/05 03:44:23;;;;;;;3.33;1.65;;;;;;;;;;5008219;28;20030;-57
2022/07/05 03:46:49;;;;;;;2.90;1.33;;;;;;;;;;5027183;28;20773;-55
2022/07/05 03:49:15;;;;;;;4.43;1.73;;;;;;;;;;5028309;28;20375;-55
2022/07/05 03:51:41;;;;;;;2.33;1.50;;;;;;;;;;5029443;28;20124;-56
2022/07/05 03:54:07;;;;;;;4.00;1.42;;;;;;;;;;5029689;28;20037;-56
2022/07/05 03:56:33;;;;;;;2.55;1.65;;;;;;;;;;5027129;28;20025;-55
2022/07/05 03:58:59;;;;;;;2.72;1.60;;;;;;;;;;5027274;28;20029;-55
2022/07/05 04:01:25;;;;;;;3.47;1.50;;;;;;;;;;5025950;28;20024;-55
2022/07/05 04:03:51;;;;;;;1.45;1.08;;;;;;;;;;5026362;28;20017;-55
2022/07/05 04:06:17;;;;;;;1.88;1.20;;;;;;;;;;5032151;28;20035;-53
2022/07/05 04:08:43;;;;;;;3.13;1.30;;;;;;;;;;5029883;28;20097;-55
2022/07/05 04:11:12;;;;;;;2.42;1.40;;;;;;;;;;5032441;28;20504;-56
2022/07/05 04:13:40;;;;;;;3.63;1.60;;;;;;;;;;5030223;28;20036;-55
2022/07/05 04:16:05;;;;;;;2.20;1.42;;;;;;;;;;5030733;28;20040;-56
2022/07/05 04:18:31;;;;;;;3.25;1.48;;;;;;;;;;5028525;28;20026;-56
2022/07/05 04:20:57;;;;;;;2.35;1.63;;;;;;;;;;5031035;28;20041;-55
2022/07/05 04:23:23;;;;;;;3.47;1.60;;;;;;;;;;5008927;28;20476;-56
2022/07/05 04:25:49;;;;;;;3.63;1.52;;;;;;;;;;5030887;28;20451;-57
2022/07/05 04:28:15;;;;;;;4.20;1.40;;;;;;;;;;5029636;28;20028;-53
2022/07/05 04:30:41;;;;;;;2.08;1.50;;;;;;;;;;5030335;28;20026;-56
2022/07/05 04:33:07;;;;;;;1.42;1.17;;;;;;;;;;5031360;28;20032;-56
2022/07/05 04:35:33;;;;;;;3.53;1.45;;;;;;;;;;5031295;28;20029;-58
2022/07/05 04:37:59;;;;;;;3.97;1.70;;;;;;;;;;5031860;28;20061;-53
2022/07/05 04:40:25;;;;;;;3.63;1.85;;;;;;;;;;5023067;28;20034;-58
2022/07/05 04:42:51;;;;;;;4.88;1.63;;;;;;;;;;5028673;28;20051;-56
2022/07/05 04:45:17;;;;;;;3.45;1.65;;;;;;;;;;5028228;28;20021;-56
2022/07/05 04:47:43;;;;;;;2.20;1.85;;;;;;;;;;5028799;28;20022;-56
2022/07/05 04:50:09;;;;;;;2.30;1.40;;;;;;;;;;5029024;28;20262;-56
2022/07/05 04:52:35;;;;;;;2.20;1.20;;;;;;;;;;5029980;28;20032;-56
2022/07/05 04:55:01;;;;;;;2.42;1.42;;;;;;;;;;5031935;28;20061;-56
2022/07/05 04:57:27;;;;;;;3.67;1.65;;;;;;;;;;5029575;28;20468;-57
2022/07/05 04:59:54;;;;;;;3.28;1.60;;;;;;;;;;5027514;28;20049;-57
2022/07/05 05:02:20;;;;;;;4.80;1.27;;;;;;;;;;5024713;28;20049;-56
2022/07/05 05:04:45;;;;;;;2.38;1.45;;;;;;;;;;5013368;28;20393;-57
2022/07/05 05:07:12;;;;;;;3.90;1.58;;;;;;;;;;5032115;28;20068;-54
2022/07/05 05:09:38;;;;;;;4.45;1.73;;;;;;;;;;5031328;28;20030;-55
2022/07/05 05:12:05;;;;;;;6.05;1.98;;;;;;;;;;5029199;28;20029;-56
2022/07/05 05:14:30;;;;;;;3.13;1.60;;;;;;;;;;5028421;28;20074;-56
2022/07/05 05:16:56;;;;;;;3.05;1.60;;;;;;;;;;5026437;28;20440;-56
2022/07/05 05:19:22;;;;;;;5.97;1.35;;;;;;;;;;5030604;28;20033;-55
2022/07/05 05:21:48;;;;;;;3.55;1.50;;;;;;;;;;5029993;28;20021;-54
2022/07/05 05:24:14;;;;;;;2.63;1.35;;;;;;;;;;5029986;28;20496;-56
2022/07/05 05:26:40;;;;;;;5.80;1.70;;;;;;;;;;5013282;28;20518;-56
2022/07/05 05:29:06;;;;;;;2.65;1.33;;;;;;;;;;5027626;28;20393;-55
2022/07/05 05:31:33;;;;;;;2.83;1.30;;;;;;;;;;5031956;28;20076;-57
2022/07/05 05:33:59;;;;;;;3.53;1.02;;;;;;;;;;5029050;28;20033;-57
2022/07/05 05:36:25;;;;;;;6.38;1.17;;;;;;;;;;5026910;28;20025;-57
2022/07/05 05:38:51;;;;;;;3.72;1.20;;;;;;;;;;5029945;28;20021;-56
2022/07/05 05:41:17;;;;;;;5.15;1.20;;;;;;;;;;5024065;28;20029;-57
2022/07/05 05:43:43;;;;;;;4.20;1.13;;;;;;;;;;5030716;28;20064;-53
2022/07/05 05:46:09;;;;;;;4.05;1.75;;;;;;;;;;5028124;28;20040;-56
2022/07/05 05:48:35;;;;;;;4.60;1.00;;;;;;;;;;5030436;28;20093;-55
2022/07/05 05:51:01;;;;;;;3.00;1.00;;;;;;;;;;5030016;28;20080;-57
2022/07/05 05:53:27;;;;;;;3.17;1.08;;;;;;;;;;5023863;28;20044;-57
2022/07/05 05:55:53;;;;;;;2.47;1.10;;;;;;;;;;5029759;28;20120;-56
2022/07/05 05:58:26;;;;;;;2.72;0.90;;;;;;;;;;5022865;28;20462;-57
2022/07/05 06:00:52;;;;;;;3.00;1.00;;;;;;;;;;5028244;28;20033;-55
2022/07/05 06:03:22;;;;;;;1.55;0.88;;;;;;;;;;5028852;28;20029;-57
2022/07/05 06:05:48;;;;;;;2.85;1.10;;;;;;;;;;5026761;28;20035;-55
2022/07/05 06:08:14;;;;;;;2.05;0.85;;;;;;;;;;5027646;28;20457;-56
2022/07/05 06:10:40;;;;;;;2.30;1.05;;;;;;;;;;5030454;28;20480;-56
2022/07/05 06:13:07;;;;;;;3.88;1.08;;;;;;;;;;5026527;28;20049;-57
2022/07/05 06:15:34;;;;;;;2.65;1.33;;;;;;;;;;5027274;28;20043;-56
2022/07/05 06:18:00;;;;;;;1.85;0.80;;;;;;;;;;5029129;28;20434;-56
2022/07/05 06:20:26;;;;;;;1.98;0.80;;;;;;;;;;5027243;28;20397;-55
2022/07/05 06:22:53;;;;;;;1.55;0.90;;;;;;;;;;5028695;28;20101;-57
2022/07/05 06:25:20;;;;;;;2.42;0.95;;;;;;;;;;5029316;28;20520;-56
2022/07/05 06:27:47;;;;;;;3.90;1.02;;;;;;;;;;5028446;28;20068;-56
2022/07/05 06:30:17;;;;;;;1.65;0.98;;;;;;;;;;5027260;28;20120;-55
2022/07/05 06:32:43;;;;;;;2.08;0.70;;;;;;;;;;5028065;28;20481;-56
2022/07/05 06:35:09;;;;;;;2.05;0.77;;;;;;;;;;5030230;28;20533;-55
2022/07/05 06:37:42;;;;;;;1.90;0.60;;;;;;;;;;5026286;28;20044;-56
2022/07/05 06:40:09;;;;;;;2.70;1.20;;;;;;;;;;5020294;28;20562;-57
2022/07/05 06:42:35;;;;;;;2.72;0.80;;;;;;;;;;5030847;28;20460;-55
2022/07/05 06:45:01;;;;;;;2.72;0.80;;;;;;;;;;5029857;28;20029;-56
2022/07/05 06:47:27;;;;;;;1.85;0.82;;;;;;;;;;5027297;28;20018;-55
2022/07/05 06:49:53;;;;;;;2.13;1.10;;;;;;;;;;5027050;28;20035;-56
2022/07/05 06:52:19;;;;;;;3.83;1.27;;;;;;;;;;5030927;28;20083;-57
2022/07/05 06:54:45;;;;;;;1.92;0.70;;;;;;;;;;5029900;28;20033;-55
2022/07/05 06:57:11;;;;;;;2.83;0.80;;;;;;;;;;5029242;28;20037;-56
2022/07/05 06:59:37;;;;;;;3.17;0.77;;;;;;;;;;5029439;28;20052;-54
2022/07/05 07:02:03;;;;;;;2.22;0.75;;;;;;;;;;5028804;28;20196;-57
2022/07/05 07:04:29;;;;;;;2.30;1.13;;;;;;;;;;5028369;28;20480;-54
2022/07/05 07:06:55;;;;;;;4.57;0.98;;;;;;;;;;5024988;28;20489;-55
2022/07/05 07:09:21;;;;;;;2.65;0.68;;;;;;;;;;5029555;28;20025;-55
2022/07/05 07:11:48;;;;;;;1.70;0.75;;;;;;;;;;5029473;28;20076;-56
2022/07/05 07:14:14;;;;;;;1.48;0.57;;;;;;;;;;5028435;28;20033;-54
2022/07/05 07:16:40;;;;;;;1.65;0.98;;;;;;;;;;5027978;28;20405;-55
2022/07/05 07:19:06;;;;;;;3.47;0.90;;;;;;;;;;5029003;28;20042;-56
2022/07/05 07:21:32;;;;;;;0.55;0.45;;;;;;;;;;5033981;28;20033;-56
2022/07/05 07:23:58;;;;;;;1.05;0.70;;;;;;;;;;5028887;28;20072;-56
2022/07/05 07:26:24;;;;;;;2.00;0.68;;;;;;;;;;5028015;28;20068;-54
2022/07/05 07:28:50;;;;;;;1.75;0.93;;;;;;;;;;5026094;28;20033;-56
2022/07/05 07:31:16;;;;;;;1.20;0.80;;;;;;;;;;5027133;28;20099;-55
2022/07/05 07:33:42;;;;;;;1.38;0.68;;;;;;;;;;5029712;28;20457;-56
2022/07/05 07:36:08;;;;;;;1.63;0.70;;;;;;;;;;5030323;28;20025;-56
2022/07/05 07:38:34;;;;;;;2.28;0.60;;;;;;;;;;5030173;28;20041;-54
2022/07/05 07:41:00;;;;;;;4.25;0.80;;;;;;;;;;5033143;28;20400;-56
2022/07/05 07:43:26;;;;;;;2.17;0.70;;;;;;;;;;5032808;28;20057;-56
2022/07/05 07:45:52;;;;;;;3.22;0.90;;;;;;;;;;5032998;28;20485;-56
2022/07/05 07:48:18;;;;;;;1.60;0.63;;;;;;;;;;5031315;28;20487;-55
2022/07/05 07:50:44;;;;;;;1.52;0.98;;;;;;;;;;5032268;28;20737;-57
2022/07/05 07:53:10;;;;;;;2.33;1.27;;;;;;;;;;5015155;28;20397;-56
2022/07/05 07:55:36;;;;;;;4.15;1.00;;;;;;;;;;5033345;28;20030;-54
2022/07/05 07:58:03;;;;;;;2.13;0.70;;;;;;;;;;5032404;28;20437;-57
2022/07/05 08:00:29;;;;;;;2.28;0.80;;;;;;;;;;5031999;28;20021;-56
2022/07/05 08:02:55;;;;;;;4.78;0.80;;;;;;;;;;5032039;28;20040;-56
2022/07/05 08:05:21;;;;;;;5.30;1.17;;;;;;;;;;5037552;28;20457;-56
2022/07/05 08:07:47;;;;;;;1.38;0.50;;;;;;;;;;5034243;28;20033;-55
2022/07/05 08:10:13;;;;;;;4.50;1.20;;;;;;;;;;5033152;28;20030;-57
2022/07/05 08:12:39;;;;;;;3.63;0.93;;;;;;;;;;5032897;28;20520;-56
2022/07/05 08:15:07;;;;;;;2.80;1.00;;;;;;;;;;5028400;28;20033;-56
2022/07/05 08:17:33;;;;;;;1.50;1.13;;;;;;;;;;5030913;28;20041;-57
2022/07/05 08:22:44;;;;;;;5.03;0.60;;;;;;;;;;5020198;28;20503;-57
2022/07/05 08:25:10;;;;;;;4.15;1.10;;;;;;;;;;5020718;28;20037;-55
2022/07/05 08:27:36;;;;;;;5.32;0.75;;;;;;;;;;5027342;28;20471;-55
2022/07/05 08:30:02;;;;;;;1.80;0.70;;;;;;;;;;5028134;28;20022;-57
2022/07/05 08:32:28;;;;;;;4.63;0.68;;;;;;;;;;5030942;28;20537;-56
2022/07/05 08:34:54;;;;;;;2.78;0.73;;;;;;;;;;5031597;28;20036;-55
2022/07/05 08:37:20;;;;;;;2.47;0.93;;;;;;;;;;5033376;28;20033;-55
2022/07/05 08:39:46;;;;;;;2.17;0.75;;;;;;;;;;5028210;28;20021;-57
2022/07/05 08:42:12;;;;;;;4.03;0.75;;;;;;;;;;5027174;28;20060;-56
2022/07/05 08:44:39;;;;;;;1.80;0.80;;;;;;;;;;5029672;28;20017;-55
2022/07/05 08:47:07;;;;;;;1.75;0.95;;;;;;;;;;5032877;28;20083;-54
2022/07/05 08:49:33;;;;;;;1.90;0.50;;;;;;;;;;5030678;28;20025;-56
2022/07/05 08:52:02;;;;;;;5.10;0.77;;;;;;;;;;5030564;28;20501;-56
2022/07/05 08:54:29;;;;;;;2.03;1.30;;;;;;;;;;5031812;28;20029;-56
2022/07/05 08:56:54;;;;;;;6.28;0.80;;;;;;;;;;5030767;28;20038;-56
2022/07/05 08:59:20;;;;;;;2.00;0.50;;;;;;;;;;5030944;28;20087;-56
2022/07/05 09:01:47;;;;;;;1.23;0.60;;;;;;;;;;5029069;28;20075;-55
2022/07/05 09:04:13;;;;;;;2.38;0.60;;;;;;;;;;5032822;28;20029;-55
2022/07/05 09:06:39;;;;;;;1.52;0.60;;;;;;;;;;5031738;28;20029;-55
2022/07/05 09:09:06;;;;;;;1.13;0.40;;;;;;;;;;5030542;28;20068;-57
2022/07/05 09:11:37;;;;;;;1.48;0.65;;;;;;;;;;5033757;28;20041;-56
2022/07/05 09:14:04;;;;;;;1.50;0.57;;;;;;;;;;5034320;28;20053;-56
2022/07/05 09:16:30;;;;;;;1.55;0.73;;;;;;;;;;5030210;28;20563;-57
2022/07/05 09:18:56;;;;;;;1.45;0.60;;;;;;;;;;5031516;28;20033;-56
2022/07/05 09:21:23;;;;;;;2.95;1.20;;;;;;;;;;5029787;28;20030;-55
2022/07/05 09:24:00;;;;;;;3.65;0.68;;;;;;;;;;5045633;28;20021;-53
2022/07/05 09:26:35;;;;;;;6.50;0.73;;;;;;;;;;5029200;28;20080;-57
2022/07/05 09:29:03;;;;;;;3.47;0.93;;;;;;;;;;5031991;28;20577;-56
2022/07/05 09:31:30;;;;;;;2.47;0.55;;;;;;;;;;5028708;28;20029;-56
2022/07/05 09:34:03;;;;;;;8.43;0.93;;;;;;;;;;5033723;28;20033;-57
2022/07/05 09:36:47;;;;;;;1.15;0.60;;;;;;;;;;5026758;28;20116;-57
2022/07/05 09:39:13;;;;;;;4.50;0.88;;;;;;;;;;5026216;28;20041;-57
2022/07/05 09:41:39;;;;;;;3.53;0.70;;;;;;;;;;5036616;28;20424;-56
2022/07/05 09:44:05;;;;;;;1.65;0.85;;;;;;;;;;5032480;28;20105;-56
2022/07/05 09:46:31;;;;;;;1.30;0.60;;;;;;;;;;5031262;28;20087;-56
2022/07/05 09:48:57;;;;;;;2.22;0.80;;;;;;;;;;5031876;28;20025;-57
2022/07/05 09:51:24;;;;;;;2.35;0.60;;;;;;;;;;5028402;28;20473;-57
2022/07/05 09:53:51;;;;;;;1.90;0.50;;;;;;;;;;5031689;28;20116;-57
2022/07/05 09:56:20;;;;;;;1.55;0.80;;;;;;;;;;5007474;28;20018;-56
2022/07/05 09:58:46;;;;;;;1.92;0.73;;;;;;;;;;5030204;28;20507;-57
2022/07/05 10:01:28;;;;;;;2.70;0.52;;;;;;;;;;5026084;28;20022;-57
2022/07/05 10:03:55;;;;;;;1.27;0.50;;;;;;;;;;5029058;28;20033;-56
2022/07/05 10:06:23;;;;;;;2.40;0.80;;;;;;;;;;5031597;28;20029;-57
2022/07/05 10:08:49;;;;;;;0.90;0.57;;;;;;;;;;5031642;28;20358;-57
2022/07/05 10:11:17;;;;;;;2.45;1.00;;;;;;;;;;5030023;28;20029;-57
2022/07/05 10:13:44;;;;;;;2.42;0.77;;;;;;;;;;5030116;28;20488;-57
2022/07/05 10:16:10;;;;;;;3.42;0.70;;;;;;;;;;5035068;28;20025;-57
2022/07/05 10:18:37;;;;;;;1.25;0.57;;;;;;;;;;5034792;28;20116;-56
2022/07/05 10:21:04;;;;;;;2.22;0.80;;;;;;;;;;5030368;28;20026;-56
2022/07/05 10:23:31;;;;;;;2.28;0.80;;;;;;;;;;5031125;28;20480;-57
2022/07/05 10:25:57;;;;;;;3.08;0.98;;;;;;;;;;5029489;28;20030;-57
2022/07/05 10:28:23;;;;;;;0.82;0.70;;;;;;;;;;5025104;28;20026;-56
2022/07/05 10:30:50;;;;;;;3.05;0.80;;;;;;;;;;5028709;28;20552;-57
2022/07/05 10:33:20;;;;;;;1.92;0.70;;;;;;;;;;5030618;28;20052;-56
2022/07/05 10:35:46;;;;;;;1.27;0.80;;;;;;;;;;5030368;28;20045;-56
2022/07/05 10:38:13;;;;;;;5.38;0.75;;;;;;;;;;5031177;28;20401;-57
2022/07/05 10:40:41;;;;;;;2.03;0.90;;;;;;;;;;5029086;28;20033;-57
2022/07/05 10:43:07;;;;;;;1.55;0.80;;;;;;;;;;5023387;28;20099;-57
2022/07/05 10:45:34;;;;;;;4.53;1.17;;;;;;;;;;5024734;28;20390;-57
2022/07/05 10:48:12;;;;;;;1.90;0.70;;;;;;;;;;5017927;28;20033;-58
2022/07/05 10:50:44;;;;;;;1.67;0.65;;;;;;;;;;5010384;28;20079;-57
2022/07/05 10:53:10;;;;;;;3.70;1.10;;;;;;;;;;5012105;28;20057;-57
2022/07/05 10:55:55;;;;;;;1.67;0.73;;;;;;;;;;5030735;28;20064;-55
2022/07/05 10:58:22;;;;;;;1.15;0.50;;;;;;;;;;5024945;28;20060;-57
2022/07/05 11:00:52;;;;;;;5.40;0.80;;;;;;;;;;5030416;28;20080;-57
2022/07/05 11:03:37;;;;;;;2.35;0.90;;;;;;;;;;5029467;28;20045;-56
2022/07/05 11:06:04;;;;;;;1.85;0.70;;;;;;;;;;5020570;28;20058;-56
2022/07/05 11:08:32;;;;;;;2.80;0.60;;;;;;;;;;5030378;28;20034;-57
2022/07/05 11:11:12;;;;;;;2.60;1.08;;;;;;;;;;5018994;28;20500;-57
2022/07/05 11:13:39;;;;;;;1.85;1.17;;;;;;;;;;5032689;28;20040;-57
2022/07/05 11:16:37;;;;;;;1.13;0.63;;;;;;;;;;5034844;28;20091;-57
2022/07/05 11:19:09;;;;;;;1.63;0.60;;;;;;;;;;4981025;28;20064;-57
2022/07/05 11:21:37;;;;;;;1.25;0.50;;;;;;;;;;5011767;28;20036;-56
2022/07/05 11:24:19;;;;;;;2.17;0.80;;;;;;;;;;5030164;28;20366;-57
2022/07/05 11:26:45;;;;;;;2.72;0.85;;;;;;;;;;5025802;28;20505;-57
2022/07/05 11:29:30;;;;;;;4.10;0.98;;;;;;;;;;5031303;28;20108;-57
2022/07/05 11:32:05;;;;;;;1.17;0.50;;;;;;;;;;5031173;28;20040;-57
2022/07/05 11:34:35;;;;;;;4.93;0.85;;;;;;;;;;5025540;28;20083;-57
2022/07/05 11:37:21;;;;;;;2.25;0.82;;;;;;;;;;5030535;28;20036;-57
2022/07/05 11:40:07;;;;;;;2.20;0.82;;;;;;;;;;5033688;28;20021;-56
2022/07/05 11:42:42;;;;;;;12.43;1.92;;;;;;;;;;5021123;28;20120;-57
2022/07/05 11:45:08;;;;;;;4.72;0.68;;;;;;;;;;5033769;28;20104;-57
2022/07/05 11:47:35;;;;;;;2.50;0.47;;;;;;;;;;5032235;28;20143;-57
2022/07/05 11:50:01;;;;;;;2.35;0.65;;;;;;;;;;5031755;28;20100;-56
2022/07/05 11:52:27;;;;;;;2.53;0.65;;;;;;;;;;5031282;28;20121;-57
2022/07/05 11:54:53;;;;;;;1.27;0.52;;;;;;;;;;5031803;28;20452;-57
2022/07/05 11:57:20;;;;;;;4.97;0.70;;;;;;;;;;5032684;28;20116;-57
2022/07/05 11:59:46;;;;;;;1.88;0.55;;;;;;;;;;5032439;28;20049;-56
2022/07/05 12:02:13;;;;;;;2.25;0.63;;;;;;;;;;5030452;28;20039;-57
2022/07/05 12:04:39;;;;;;;1.95;0.75;;;;;;;;;;5032368;28;20663;-56
2022/07/05 12:07:05;;;;;;;3.40;0.60;;;;;;;;;;5031567;28;20033;-57
2022/07/05 12:12:42;;;;;;;2.40;0.70;;;;;;;;;;5033877;28;20032;-57
2022/07/05 12:15:03;;;;;;;1.60;0.60;;;;;;;;;;5027156;28;20551;-57
2022/07/05 12:17:29;;;;;;;1.58;0.80;;;;;;;;;;5032805;28;20037;-56
2022/07/05 12:19:55;;;;;;;2.53;0.57;;;;;;;;;;5032656;28;20069;-57
2022/07/05 12:22:31;;;;;;;2.67;0.63;;;;;;;;;;5029157;28;20029;-56
2022/07/05 12:24:58;;;;;;;4.05;0.60;;;;;;;;;;5031415;28;20033;-57
2022/07/05 12:27:25;;;;;;;3.40;0.70;;;;;;;;;;5031563;28;20048;-57
2022/07/05 12:29:51;;;;;;;1.92;0.50;;;;;;;;;;5029328;28;20132;-57
2022/07/05 12:32:17;;;;;;;3.08;0.77;;;;;;;;;;5027892;28;20180;-55
2022/07/05 12:34:43;;;;;;;0.88;0.40;;;;;;;;;;5013049;28;20033;-57
2022/07/05 12:37:09;;;;;;;1.90;0.50;;;;;;;;;;5030210;28;20045;-57
2022/07/05 12:39:35;;;;;;;1.67;0.70;;;;;;;;;;5028562;28;20026;-57
2022/07/05 12:42:01;;;;;;;2.08;0.95;;;;;;;;;;5029450;28;20590;-57
2022/07/05 12:44:27;;;;;;;1.42;0.60;;;;;;;;;;5030238;28;20100;-57
2022/07/05 12:47:04;;;;;;;2.03;0.60;;;;;;;;;;5020398;28;20037;-57
2022/07/05 12:49:30;;;;;;;2.05;0.60;;;;;;;;;;5026004;28;20026;-56
2022/07/05 12:52:04;;;;;;;1.73;0.80;;;;;;;;;;5032423;28;20477;-57
2022/07/05 13:00:02;;;;;;;2.08;0.70;;;;;;;;;;5036382;28;20040;-57
2022/07/05 13:02:38;;;;;;;3.00;0.70;;;;;;;;;;5031650;28;20033;-57
2022/07/05 13:05:06;;;;;;;2.10;0.60;;;;;;;;;;5025135;28;20112;-57
2022/07/05 13:07:32;;;;;;;1.80;0.60;;;;;;;;;;5034646;28;20025;-58
2022/07/05 13:10:13;;;;;;;1.83;0.65;;;;;;;;;;5031430;28;20036;-56
2022/07/05 13:12:39;;;;;;;2.65;0.68;;;;;;;;;;5031490;28;20026;-57
2022/07/05 13:15:05;;;;;;;1.75;0.50;;;;;;;;;;5031319;28;20036;-57
2022/07/05 13:17:31;;;;;;;2.38;0.60;;;;;;;;;;5032375;28;20109;-58
2022/07/05 13:19:59;;;;;;;0.80;0.50;;;;;;;;;;5028594;28;20041;-58
2022/07/05 13:22:25;;;;;;;2.33;0.88;;;;;;;;;;5033350;28;20112;-57
2022/07/05 13:24:51;;;;;;;3.20;1.00;;;;;;;;;;5035573;28;20025;-58
2022/07/05 13:27:17;;;;;;;2.03;0.88;;;;;;;;;;5028284;28;20056;-57
2022/07/05 13:29:44;;;;;;;2.47;0.50;;;;;;;;;;5029897;28;20104;-57
2022/07/05 13:32:10;;;;;;;2.10;0.65;;;;;;;;;;5031679;28;20033;-57
2022/07/05 13:34:36;;;;;;;6.13;0.82;;;;;;;;;;5031339;28;20033;-58
2022/07/05 13:37:02;;;;;;;2.92;0.50;;;;;;;;;;5030566;28;20095;-57
2022/07/05 13:39:28;;;;;;;4.43;0.50;;;;;;;;;;5031484;28;20560;-57
2022/07/05 13:41:55;;;;;;;2.95;0.52;;;;;;;;;;5025467;28;20040;-55
2022/07/05 13:44:21;;;;;;;2.53;0.50;;;;;;;;;;5028208;28;20029;-54
2022/07/05 13:46:47;;;;;;;2.63;0.60;;;;;;;;;;5032580;28;20357;-54
2022/07/05 13:49:13;;;;;;;2.97;0.60;;;;;;;;;;5027297;28;20131;-55
2022/07/05 13:51:39;;;;;;;1.17;0.60;;;;;;;;;;5028719;28;20160;-55
2022/07/05 13:54:05;;;;;;;2.25;0.60;;;;;;;;;;5029640;28;20548;-54
2022/07/05 13:56:31;;;;;;;1.67;0.60;;;;;;;;;;5031604;28;20026;-56
2022/07/05 13:58:58;;;;;;;2.85;0.60;;;;;;;;;;5028953;28;20025;-55
2022/07/05 14:01:28;;;;;;;1.60;0.60;;;;;;;;;;5034863;28;20029;-55
2022/07/05 14:03:56;;;;;;;2.83;0.73;;;;;;;;;;5033494;28;20120;-55
2022/07/05 14:06:22;;;;;;;1.65;0.50;;;;;;;;;;5031962;28;20096;-55
2022/07/05 14:08:48;;;;;;;1.30;0.32;;;;;;;;;;5036413;28;20377;-55
2022/07/05 14:11:14;;;;;;;2.10;0.65;;;;;;;;;;5031116;28;20037;-55
2022/07/05 14:13:41;;;;;;;3.58;0.60;;;;;;;;;;5026537;28;20038;-55
2022/07/05 14:16:07;;;;;;;2.10;0.75;;;;;;;;;;5031509;28;20389;-55
2022/07/05 14:18:33;;;;;;;3.20;0.50;;;;;;;;;;5030632;28;20458;-55
2022/07/05 14:20:59;;;;;;;1.35;0.50;;;;;;;;;;5030617;28;20482;-56
2022/07/05 14:23:26;;;;;;;2.63;0.70;;;;;;;;;;5030943;28;20045;-55
2022/07/05 14:25:52;;;;;;;0.98;0.30;;;;;;;;;;5026366;28;20466;-55
2022/07/05 14:28:18;;;;;;;1.40;0.45;;;;;;;;;;5026495;28;20025;-55
2022/07/05 14:30:45;;;;;;;1.92;0.57;;;;;;;;;;5031379;28;20087;-55
2022/07/05 14:33:12;;;;;;;1.13;0.50;;;;;;;;;;5031033;28;20030;-55
2022/07/05 14:35:38;;;;;;;2.10;0.85;;;;;;;;;;5029934;28;20032;-55
2022/07/05 14:38:04;;;;;;;1.38;0.52;;;;;;;;;;5012140;28;20556;-57
2022/07/05 14:40:30;;;;;;;1.35;0.40;;;;;;;;;;5030323;28;20041;-57
2022/07/05 14:42:57;;;;;;;1.60;0.60;;;;;;;;;;5031050;28;20481;-57
2022/07/05 14:45:23;;;;;;;2.13;0.70;;;;;;;;;;5030405;28;20045;-57
2022/07/05 14:47:49;;;;;;;2.55;0.38;;;;;;;;;;5026281;28;20040;-58
2022/07/05 14:50:15;;;;;;;1.77;0.40;;;;;;;;;;5020155;28;20029;-57
2022/07/05 14:52:42;;;;;;;1.48;0.70;;;;;;;;;;5023608;28;20057;-57
2022/07/05 14:55:11;;;;;;;1.88;0.70;;;;;;;;;;5021779;28;20034;-57
2022/07/05 14:57:37;;;;;;;2.05;0.50;;;;;;;;;;5026734;28;20155;-57